sensor_id;sensor_type;location;lat;lon;timestamp;P1;durP1;ratioP1;P2;durP2;ratioP2
317;SDS011;146;53.448;10.228;2022-11-12T00:00:56;6.60;;;6.00;;
317;SDS011;146;53.448;10.228;2022-11-12T00:03:24;7.47;;;6.37;;
317;SDS011;146;53.448;10.228;2022-11-12T00:05:52;8.70;;;7.97;;
317;SDS011;146;53.448;10.228;2022-11-12T00:08:19;10.33;;;9.27;;
317;SDS011;146;53.448;10.228;2022-11-12T00:10:47;8.83;;;8.13;;
317;SDS011;146;53.448;10.228;2022-11-12T00:13:14;8.83;;;7.30;;
317;SDS011;146;53.448;10.228;2022-11-12T00:15:41;8.67;;;7.77;;
317;SDS011;146;53.448;10.228;2022-11-12T00:18:08;8.43;;;7.50;;
317;SDS011;146;53.448;10.228;2022-11-12T00:20:35;7.30;;;6.60;;
317;SDS011;146;53.448;10.228;2022-11-12T00:23:03;8.23;;;7.37;;
317;SDS011;146;53.448;10.228;2022-11-12T00:25:30;8.70;;;7.80;;
317;SDS011;146;53.448;10.228;2022-11-12T00:28:00;8.77;;;7.90;;
317;SDS011;146;53.448;10.228;2022-11-12T00:30:28;10.57;;;9.17;;
317;SDS011;146;53.448;10.228;2022-11-12T00:32:55;9.17;;;8.30;;
317;SDS011;146;53.448;10.228;2022-11-12T00:35:22;9.17;;;8.27;;
317;SDS011;146;53.448;10.228;2022-11-12T00:37:52;10.60;;;8.80;;
317;SDS011;146;53.448;10.228;2022-11-12T00:40:22;8.07;;;7.23;;
317;SDS011;146;53.448;10.228;2022-11-12T00:42:49;8.60;;;7.80;;
317;SDS011;146;53.448;10.228;2022-11-12T00:45:16;7.30;;;6.60;;
317;SDS011;146;53.448;10.228;2022-11-12T00:47:43;8.10;;;6.90;;
317;SDS011;146;53.448;10.228;2022-11-12T00:50:09;11.00;;;7.50;;
317;SDS011;146;53.448;10.228;2022-11-12T00:52:36;10.00;;;7.70;;
317;SDS011;146;53.448;10.228;2022-11-12T00:55:04;8.50;;;7.60;;
317;SDS011;146;53.448;10.228;2022-11-12T00:57:32;10.10;;;7.83;;
317;SDS011;146;53.448;10.228;2022-11-12T00:59:59;8.67;;;7.87;;
317;SDS011;146;53.448;10.228;2022-11-12T01:02:26;9.20;;;7.83;;
317;SDS011;146;53.448;10.228;2022-11-12T01:04:53;7.30;;;6.60;;
317;SDS011;146;53.448;10.228;2022-11-12T01:07:20;7.77;;;7.03;;
317;SDS011;146;53.448;10.228;2022-11-12T01:09:47;7.83;;;7.13;;
317;SDS011;146;53.448;10.228;2022-11-12T01:12:13;7.50;;;6.80;;
317;SDS011;146;53.448;10.228;2022-11-12T01:14:44;8.63;;;7.83;;
317;SDS011;146;53.448;10.228;2022-11-12T01:17:11;7.73;;;7.03;;
317;SDS011;146;53.448;10.228;2022-11-12T01:19:37;8.07;;;7.27;;
317;SDS011;146;53.448;10.228;2022-11-12T01:22:04;10.07;;;7.30;;
317;SDS011;146;53.448;10.228;2022-11-12T01:24:31;7.37;;;6.73;;
317;SDS011;146;53.448;10.228;2022-11-12T01:26:58;8.00;;;6.93;;
317;SDS011;146;53.448;10.228;2022-11-12T01:29:25;7.03;;;6.00;;
317;SDS011;146;53.448;10.228;2022-11-12T01:31:54;7.80;;;6.90;;
317;SDS011;146;53.448;10.228;2022-11-12T01:34:21;8.87;;;8.07;;
317;SDS011;146;53.448;10.228;2022-11-12T01:36:48;11.00;;;8.00;;
317;SDS011;146;53.448;10.228;2022-11-12T01:39:14;7.23;;;6.57;;
317;SDS011;146;53.448;10.228;2022-11-12T01:41:41;8.70;;;7.37;;
317;SDS011;146;53.448;10.228;2022-11-12T01:44:12;8.17;;;7.30;;
317;SDS011;146;53.448;10.228;2022-11-12T01:46:44;9.40;;;8.40;;
317;SDS011;146;53.448;10.228;2022-11-12T01:49:22;8.70;;;7.77;;
317;SDS011;146;53.448;10.228;2022-11-12T01:51:53;8.97;;;8.07;;
317;SDS011;146;53.448;10.228;2022-11-12T01:54:23;8.40;;;7.70;;
317;SDS011;146;53.448;10.228;2022-11-12T01:56:51;8.17;;;7.33;;
317;SDS011;146;53.448;10.228;2022-11-12T01:59:21;8.60;;;7.70;;
317;SDS011;146;53.448;10.228;2022-11-12T02:01:52;11.10;;;9.40;;
317;SDS011;146;53.448;10.228;2022-11-12T02:04:19;8.10;;;7.33;;
317;SDS011;146;53.448;10.228;2022-11-12T02:06:48;8.57;;;7.67;;
317;SDS011;146;53.448;10.228;2022-11-12T02:09:17;9.30;;;8.17;;
317;SDS011;146;53.448;10.228;2022-11-12T02:11:44;8.03;;;7.23;;
317;SDS011;146;53.448;10.228;2022-11-12T02:14:11;9.00;;;8.10;;
317;SDS011;146;53.448;10.228;2022-11-12T02:16:39;8.83;;;8.00;;
317;SDS011;146;53.448;10.228;2022-11-12T02:19:07;8.37;;;7.53;;
317;SDS011;146;53.448;10.228;2022-11-12T02:21:37;9.97;;;7.90;;
317;SDS011;146;53.448;10.228;2022-11-12T02:24:05;8.87;;;7.03;;
317;SDS011;146;53.448;10.228;2022-11-12T02:26:59;8.20;;;7.60;;
317;SDS011;146;53.448;10.228;2022-11-12T02:29:26;6.50;;;6.00;;
317;SDS011;146;53.448;10.228;2022-11-12T02:31:53;7.03;;;6.37;;
317;SDS011;146;53.448;10.228;2022-11-12T02:34:20;6.70;;;6.10;;
317;SDS011;146;53.448;10.228;2022-11-12T02:36:48;6.53;;;5.93;;
317;SDS011;146;53.448;10.228;2022-11-12T02:39:15;7.17;;;6.07;;
317;SDS011;146;53.448;10.228;2022-11-12T02:41:42;11.10;;;6.57;;
317;SDS011;146;53.448;10.228;2022-11-12T02:44:09;7.90;;;7.17;;
317;SDS011;146;53.448;10.228;2022-11-12T02:46:36;7.03;;;6.43;;
317;SDS011;146;53.448;10.228;2022-11-12T02:49:03;6.57;;;5.90;;
317;SDS011;146;53.448;10.228;2022-11-12T02:51:30;6.60;;;6.00;;
317;SDS011;146;53.448;10.228;2022-11-12T02:53:58;7.23;;;5.80;;
317;SDS011;146;53.448;10.228;2022-11-12T02:56:25;6.87;;;6.13;;
317;SDS011;146;53.448;10.228;2022-11-12T02:58:52;6.70;;;6.10;;
317;SDS011;146;53.448;10.228;2022-11-12T03:01:19;6.20;;;5.70;;
317;SDS011;146;53.448;10.228;2022-11-12T03:03:46;7.83;;;6.30;;
317;SDS011;146;53.448;10.228;2022-11-12T03:06:12;7.10;;;6.40;;
317;SDS011;146;53.448;10.228;2022-11-12T03:08:39;7.10;;;6.40;;
317;SDS011;146;53.448;10.228;2022-11-12T03:11:08;7.37;;;6.67;;
317;SDS011;146;53.448;10.228;2022-11-12T03:13:37;6.93;;;6.23;;
317;SDS011;146;53.448;10.228;2022-11-12T03:16:04;7.90;;;7.10;;
317;SDS011;146;53.448;10.228;2022-11-12T03:18:31;7.47;;;6.80;;
317;SDS011;146;53.448;10.228;2022-11-12T03:20:58;7.20;;;6.43;;
317;SDS011;146;53.448;10.228;2022-11-12T03:23:25;7.30;;;6.60;;
317;SDS011;146;53.448;10.228;2022-11-12T03:25:53;6.83;;;6.23;;
317;SDS011;146;53.448;10.228;2022-11-12T03:28:21;6.83;;;6.27;;
317;SDS011;146;53.448;10.228;2022-11-12T03:30:48;8.70;;;7.20;;
317;SDS011;146;53.448;10.228;2022-11-12T03:33:15;7.03;;;6.33;;
317;SDS011;146;53.448;10.228;2022-11-12T03:35:42;7.40;;;6.70;;
317;SDS011;146;53.448;10.228;2022-11-12T03:38:09;6.70;;;6.10;;
317;SDS011;146;53.448;10.228;2022-11-12T03:40:36;6.93;;;6.33;;
317;SDS011;146;53.448;10.228;2022-11-12T03:43:03;7.60;;;6.80;;
317;SDS011;146;53.448;10.228;2022-11-12T03:45:31;8.87;;;7.83;;
317;SDS011;146;53.448;10.228;2022-11-12T03:47:58;7.53;;;6.33;;
317;SDS011;146;53.448;10.228;2022-11-12T03:50:26;7.20;;;6.43;;
317;SDS011;146;53.448;10.228;2022-11-12T03:52:55;7.87;;;7.17;;
317;SDS011;146;53.448;10.228;2022-11-12T03:55:23;10.80;;;7.13;;
317;SDS011;146;53.448;10.228;2022-11-12T03:57:52;7.83;;;7.07;;
317;SDS011;146;53.448;10.228;2022-11-12T04:00:20;7.17;;;6.57;;
317;SDS011;146;53.448;10.228;2022-11-12T04:02:50;7.53;;;6.90;;
317;SDS011;146;53.448;10.228;2022-11-12T04:05:17;7.50;;;6.70;;
317;SDS011;146;53.448;10.228;2022-11-12T04:08:02;9.90;;;7.10;;
317;SDS011;146;53.448;10.228;2022-11-12T04:10:48;7.17;;;6.30;;
317;SDS011;146;53.448;10.228;2022-11-12T04:13:15;7.37;;;6.70;;
317;SDS011;146;53.448;10.228;2022-11-12T04:15:54;8.23;;;6.80;;
317;SDS011;146;53.448;10.228;2022-11-12T04:18:41;7.83;;;6.63;;
317;SDS011;146;53.448;10.228;2022-11-12T04:21:28;7.33;;;6.53;;
317;SDS011;146;53.448;10.228;2022-11-12T04:24:15;7.70;;;7.00;;
317;SDS011;146;53.448;10.228;2022-11-12T04:27:00;7.80;;;7.00;;
317;SDS011;146;53.448;10.228;2022-11-12T04:29:27;8.13;;;6.50;;
317;SDS011;146;53.448;10.228;2022-11-12T04:32:11;8.43;;;7.50;;
317;SDS011;146;53.448;10.228;2022-11-12T04:34:40;7.37;;;6.77;;
317;SDS011;146;53.448;10.228;2022-11-12T04:37:07;7.23;;;6.63;;
317;SDS011;146;53.448;10.228;2022-11-12T04:39:34;7.37;;;6.37;;
317;SDS011;146;53.448;10.228;2022-11-12T04:42:01;7.00;;;6.30;;
317;SDS011;146;53.448;10.228;2022-11-12T04:44:45;8.70;;;7.50;;
317;SDS011;146;53.448;10.228;2022-11-12T04:47:29;7.20;;;6.50;;
317;SDS011;146;53.448;10.228;2022-11-12T04:50:00;7.80;;;7.00;;
317;SDS011;146;53.448;10.228;2022-11-12T04:52:28;9.53;;;7.23;;
317;SDS011;146;53.448;10.228;2022-11-12T04:54:56;9.47;;;6.43;;
317;SDS011;146;53.448;10.228;2022-11-12T04:57:24;7.50;;;6.60;;
317;SDS011;146;53.448;10.228;2022-11-12T04:59:51;8.03;;;6.50;;
317;SDS011;146;53.448;10.228;2022-11-12T05:02:18;7.43;;;6.73;;
317;SDS011;146;53.448;10.228;2022-11-12T05:04:46;6.87;;;6.20;;
317;SDS011;146;53.448;10.228;2022-11-12T05:07:14;6.37;;;5.70;;
317;SDS011;146;53.448;10.228;2022-11-12T05:09:42;7.57;;;6.93;;
317;SDS011;146;53.448;10.228;2022-11-12T05:12:11;7.73;;;6.50;;
317;SDS011;146;53.448;10.228;2022-11-12T05:14:38;7.17;;;6.53;;
317;SDS011;146;53.448;10.228;2022-11-12T05:17:05;7.07;;;6.37;;
317;SDS011;146;53.448;10.228;2022-11-12T05:19:32;7.53;;;6.73;;
317;SDS011;146;53.448;10.228;2022-11-12T05:22:00;6.53;;;5.93;;
317;SDS011;146;53.448;10.228;2022-11-12T05:24:35;6.70;;;5.93;;
317;SDS011;146;53.448;10.228;2022-11-12T05:27:05;7.87;;;6.17;;
317;SDS011;146;53.448;10.228;2022-11-12T05:29:33;7.10;;;6.47;;
317;SDS011;146;53.448;10.228;2022-11-12T05:32:00;8.93;;;7.00;;
317;SDS011;146;53.448;10.228;2022-11-12T05:34:28;7.23;;;6.53;;
317;SDS011;146;53.448;10.228;2022-11-12T05:36:55;7.47;;;6.77;;
317;SDS011;146;53.448;10.228;2022-11-12T05:39:22;9.80;;;7.00;;
317;SDS011;146;53.448;10.228;2022-11-12T05:41:51;6.40;;;5.80;;
317;SDS011;146;53.448;10.228;2022-11-12T05:44:21;11.73;;;7.40;;
317;SDS011;146;53.448;10.228;2022-11-12T05:46:48;7.90;;;6.83;;
317;SDS011;146;53.448;10.228;2022-11-12T05:49:15;6.90;;;6.20;;
317;SDS011;146;53.448;10.228;2022-11-12T05:51:42;8.90;;;7.87;;
317;SDS011;146;53.448;10.228;2022-11-12T05:54:10;9.47;;;7.10;;
317;SDS011;146;53.448;10.228;2022-11-12T05:56:37;7.23;;;6.50;;
317;SDS011;146;53.448;10.228;2022-11-12T05:59:06;7.70;;;7.07;;
317;SDS011;146;53.448;10.228;2022-11-12T06:01:34;8.03;;;7.00;;
317;SDS011;146;53.448;10.228;2022-11-12T06:04:07;9.37;;;7.03;;
317;SDS011;146;53.448;10.228;2022-11-12T06:06:35;7.80;;;7.00;;
317;SDS011;146;53.448;10.228;2022-11-12T06:09:02;7.53;;;6.10;;
317;SDS011;146;53.448;10.228;2022-11-12T06:11:29;7.00;;;6.30;;
317;SDS011;146;53.448;10.228;2022-11-12T06:13:57;7.80;;;7.00;;
317;SDS011;146;53.448;10.228;2022-11-12T06:16:25;7.50;;;6.80;;
317;SDS011;146;53.448;10.228;2022-11-12T06:18:55;7.07;;;6.47;;
317;SDS011;146;53.448;10.228;2022-11-12T06:21:22;9.30;;;7.77;;
317;SDS011;146;53.448;10.228;2022-11-12T06:23:52;8.03;;;7.10;;
317;SDS011;146;53.448;10.228;2022-11-12T06:26:21;7.93;;;7.13;;
317;SDS011;146;53.448;10.228;2022-11-12T06:28:49;7.97;;;7.27;;
317;SDS011;146;53.448;10.228;2022-11-12T06:31:16;8.37;;;7.10;;
317;SDS011;146;53.448;10.228;2022-11-12T06:33:45;7.83;;;7.03;;
317;SDS011;146;53.448;10.228;2022-11-12T06:36:13;8.80;;;7.90;;
317;SDS011;146;53.448;10.228;2022-11-12T06:38:42;8.70;;;7.80;;
317;SDS011;146;53.448;10.228;2022-11-12T06:41:10;8.80;;;8.00;;
317;SDS011;146;53.448;10.228;2022-11-12T06:43:38;9.10;;;7.70;;
317;SDS011;146;53.448;10.228;2022-11-12T06:46:06;8.80;;;7.23;;
317;SDS011;146;53.448;10.228;2022-11-12T06:48:35;9.23;;;8.33;;
317;SDS011;146;53.448;10.228;2022-11-12T06:51:09;7.90;;;7.20;;
317;SDS011;146;53.448;10.228;2022-11-12T06:53:37;8.63;;;7.83;;
317;SDS011;146;53.448;10.228;2022-11-12T06:56:04;10.40;;;7.80;;
317;SDS011;146;53.448;10.228;2022-11-12T06:58:32;7.47;;;6.77;;
317;SDS011;146;53.448;10.228;2022-11-12T07:01:06;10.87;;;7.60;;
317;SDS011;146;53.448;10.228;2022-11-12T07:03:36;9.80;;;7.47;;
317;SDS011;146;53.448;10.228;2022-11-12T07:06:04;9.00;;;8.10;;
317;SDS011;146;53.448;10.228;2022-11-12T07:08:33;8.07;;;7.30;;
317;SDS011;146;53.448;10.228;2022-11-12T07:11:01;9.40;;;8.43;;
317;SDS011;146;53.448;10.228;2022-11-12T07:13:28;9.20;;;8.10;;
317;SDS011;146;53.448;10.228;2022-11-12T07:15:57;8.53;;;7.67;;
317;SDS011;146;53.448;10.228;2022-11-12T07:18:25;8.10;;;7.40;;
317;SDS011;146;53.448;10.228;2022-11-12T07:20:56;9.57;;;7.80;;
317;SDS011;146;53.448;10.228;2022-11-12T07:23:24;9.30;;;8.23;;
317;SDS011;146;53.448;10.228;2022-11-12T07:25:56;8.17;;;7.37;;
317;SDS011;146;53.448;10.228;2022-11-12T07:28:23;10.53;;;9.43;;
317;SDS011;146;53.448;10.228;2022-11-12T07:30:53;8.50;;;7.70;;
317;SDS011;146;53.448;10.228;2022-11-12T07:33:21;10.73;;;8.40;;
317;SDS011;146;53.448;10.228;2022-11-12T07:35:48;9.03;;;8.10;;
317;SDS011;146;53.448;10.228;2022-11-12T07:38:22;7.80;;;7.10;;
317;SDS011;146;53.448;10.228;2022-11-12T07:40:49;9.77;;;7.27;;
317;SDS011;146;53.448;10.228;2022-11-12T07:43:17;8.50;;;7.70;;
317;SDS011;146;53.448;10.228;2022-11-12T07:45:44;7.20;;;6.47;;
317;SDS011;146;53.448;10.228;2022-11-12T07:48:11;8.47;;;7.67;;
317;SDS011;146;53.448;10.228;2022-11-12T07:50:38;7.00;;;6.30;;
317;SDS011;146;53.448;10.228;2022-11-12T07:53:05;9.23;;;7.50;;
317;SDS011;146;53.448;10.228;2022-11-12T07:55:32;8.60;;;7.13;;
317;SDS011;146;53.448;10.228;2022-11-12T07:57:59;7.80;;;6.83;;
317;SDS011;146;53.448;10.228;2022-11-12T08:00:27;9.33;;;8.43;;
317;SDS011;146;53.448;10.228;2022-11-12T08:02:54;8.33;;;7.50;;
317;SDS011;146;53.448;10.228;2022-11-12T08:05:24;9.10;;;8.20;;
317;SDS011;146;53.448;10.228;2022-11-12T08:07:53;9.47;;;7.90;;
317;SDS011;146;53.448;10.228;2022-11-12T08:10:20;7.90;;;7.20;;
317;SDS011;146;53.448;10.228;2022-11-12T08:12:50;8.10;;;7.40;;
317;SDS011;146;53.448;10.228;2022-11-12T08:15:20;8.50;;;7.67;;
317;SDS011;146;53.448;10.228;2022-11-12T08:17:49;7.90;;;7.20;;
317;SDS011;146;53.448;10.228;2022-11-12T08:20:19;8.50;;;7.60;;
317;SDS011;146;53.448;10.228;2022-11-12T08:22:46;8.43;;;7.07;;
317;SDS011;146;53.448;10.228;2022-11-12T08:25:13;7.30;;;6.60;;
317;SDS011;146;53.448;10.228;2022-11-12T08:27:40;7.60;;;6.90;;
317;SDS011;146;53.448;10.228;2022-11-12T08:30:08;7.00;;;6.30;;
317;SDS011;146;53.448;10.228;2022-11-12T08:32:35;8.17;;;6.57;;
317;SDS011;146;53.448;10.228;2022-11-12T08:35:04;8.93;;;8.10;;
317;SDS011;146;53.448;10.228;2022-11-12T08:37:31;9.17;;;7.90;;
317;SDS011;146;53.448;10.228;2022-11-12T08:39:58;7.47;;;6.77;;
317;SDS011;146;53.448;10.228;2022-11-12T08:42:28;7.90;;;7.20;;
317;SDS011;146;53.448;10.228;2022-11-12T08:44:55;7.10;;;6.37;;
317;SDS011;146;53.448;10.228;2022-11-12T08:47:24;7.43;;;6.67;;
317;SDS011;146;53.448;10.228;2022-11-12T08:49:51;7.83;;;7.13;;
317;SDS011;146;53.448;10.228;2022-11-12T08:52:19;7.40;;;6.70;;
317;SDS011;146;53.448;10.228;2022-11-12T08:54:46;8.13;;;7.10;;
317;SDS011;146;53.448;10.228;2022-11-12T08:57:13;8.60;;;7.77;;
317;SDS011;146;53.448;10.228;2022-11-12T08:59:41;7.70;;;6.90;;
317;SDS011;146;53.448;10.228;2022-11-12T09:02:10;7.70;;;6.90;;
317;SDS011;146;53.448;10.228;2022-11-12T09:04:37;8.43;;;7.43;;
317;SDS011;146;53.448;10.228;2022-11-12T09:07:04;7.20;;;6.50;;
317;SDS011;146;53.448;10.228;2022-11-12T09:09:33;8.33;;;7.60;;
317;SDS011;146;53.448;10.228;2022-11-12T09:12:00;8.20;;;7.40;;
317;SDS011;146;53.448;10.228;2022-11-12T09:14:29;7.77;;;7.07;;
317;SDS011;146;53.448;10.228;2022-11-12T09:16:57;7.73;;;7.00;;
317;SDS011;146;53.448;10.228;2022-11-12T09:19:26;7.60;;;6.80;;
317;SDS011;146;53.448;10.228;2022-11-12T09:21:53;7.97;;;7.37;;
317;SDS011;146;53.448;10.228;2022-11-12T09:24:23;8.93;;;8.10;;
317;SDS011;146;53.448;10.228;2022-11-12T09:26:52;8.97;;;7.90;;
317;SDS011;146;53.448;10.228;2022-11-12T09:29:19;8.20;;;7.40;;
317;SDS011;146;53.448;10.228;2022-11-12T09:31:46;7.80;;;7.10;;
317;SDS011;146;53.448;10.228;2022-11-12T09:34:13;8.30;;;7.50;;
317;SDS011;146;53.448;10.228;2022-11-12T09:36:40;7.93;;;7.20;;
317;SDS011;146;53.448;10.228;2022-11-12T09:39:07;9.30;;;7.10;;
317;SDS011;146;53.448;10.228;2022-11-12T09:41:34;8.20;;;7.40;;
317;SDS011;146;53.448;10.228;2022-11-12T09:44:05;8.80;;;7.93;;
317;SDS011;146;53.448;10.228;2022-11-12T09:46:37;8.30;;;7.43;;
317;SDS011;146;53.448;10.228;2022-11-12T09:49:11;8.57;;;7.27;;
317;SDS011;146;53.448;10.228;2022-11-12T09:51:42;7.67;;;6.97;;
317;SDS011;146;53.448;10.228;2022-11-12T09:54:18;11.93;;;7.40;;
317;SDS011;146;53.448;10.228;2022-11-12T09:56:47;7.33;;;6.60;;
317;SDS011;146;53.448;10.228;2022-11-12T09:59:17;7.30;;;6.60;;
317;SDS011;146;53.448;10.228;2022-11-12T10:01:49;7.63;;;6.93;;
317;SDS011;146;53.448;10.228;2022-11-12T10:07:21;7.80;;;7.00;;
317;SDS011;146;53.448;10.228;2022-11-12T10:10:00;7.27;;;6.57;;
317;SDS011;146;53.448;10.228;2022-11-12T10:12:37;7.83;;;7.20;;
317;SDS011;146;53.448;10.228;2022-11-12T10:15:19;7.73;;;7.03;;
317;SDS011;146;53.448;10.228;2022-11-12T10:18:18;6.77;;;6.07;;
317;SDS011;146;53.448;10.228;2022-11-12T10:21:04;8.90;;;6.67;;
317;SDS011;146;53.448;10.228;2022-11-12T10:23:40;7.37;;;6.67;;
317;SDS011;146;53.448;10.228;2022-11-12T10:26:09;8.03;;;7.33;;
317;SDS011;146;53.448;10.228;2022-11-12T10:28:39;7.80;;;7.00;;
317;SDS011;146;53.448;10.228;2022-11-12T10:31:13;6.80;;;6.20;;
317;SDS011;146;53.448;10.228;2022-11-12T10:33:41;9.20;;;7.60;;
317;SDS011;146;53.448;10.228;2022-11-12T10:36:14;7.40;;;6.70;;
317;SDS011;146;53.448;10.228;2022-11-12T10:38:46;9.70;;;7.47;;
317;SDS011;146;53.448;10.228;2022-11-12T10:41:19;8.30;;;7.50;;
317;SDS011;146;53.448;10.228;2022-11-12T10:43:52;8.83;;;8.00;;
317;SDS011;146;53.448;10.228;2022-11-12T10:46:24;9.07;;;8.00;;
317;SDS011;146;53.448;10.228;2022-11-12T10:48:53;8.10;;;7.30;;
317;SDS011;146;53.448;10.228;2022-11-12T10:51:28;9.57;;;7.60;;
317;SDS011;146;53.448;10.228;2022-11-12T10:53:56;8.70;;;7.30;;
317;SDS011;146;53.448;10.228;2022-11-12T10:56:27;8.10;;;7.30;;
317;SDS011;146;53.448;10.228;2022-11-12T11:01:45;7.77;;;7.07;;
317;SDS011;146;53.448;10.228;2022-11-12T11:04:27;9.03;;;8.13;;
317;SDS011;146;53.448;10.228;2022-11-12T11:06:56;8.10;;;7.30;;
317;SDS011;146;53.448;10.228;2022-11-12T11:09:25;8.37;;;7.30;;
317;SDS011;146;53.448;10.228;2022-11-12T11:11:52;9.23;;;7.70;;
317;SDS011;146;53.448;10.228;2022-11-12T11:14:24;10.03;;;7.03;;
317;SDS011;146;53.448;10.228;2022-11-12T11:16:55;9.20;;;8.40;;
317;SDS011;146;53.448;10.228;2022-11-12T11:19:27;7.97;;;6.63;;
317;SDS011;146;53.448;10.228;2022-11-12T11:22:06;9.70;;;7.57;;
317;SDS011;146;53.448;10.228;2022-11-12T11:24:55;8.33;;;7.40;;
317;SDS011;146;53.448;10.228;2022-11-12T11:27:36;10.60;;;7.53;;
317;SDS011;146;53.448;10.228;2022-11-12T11:30:07;8.80;;;8.03;;
317;SDS011;146;53.448;10.228;2022-11-12T11:32:56;8.10;;;7.40;;
317;SDS011;146;53.448;10.228;2022-11-12T11:36:09;8.30;;;7.50;;
317;SDS011;146;53.448;10.228;2022-11-12T11:38:50;9.03;;;8.13;;
317;SDS011;146;53.448;10.228;2022-11-12T11:41:30;8.97;;;8.07;;
317;SDS011;146;53.448;10.228;2022-11-12T11:44:12;8.80;;;7.80;;
317;SDS011;146;53.448;10.228;2022-11-12T11:46:54;8.97;;;8.07;;
317;SDS011;146;53.448;10.228;2022-11-12T11:49:34;8.90;;;8.00;;
317;SDS011;146;53.448;10.228;2022-11-12T11:52:15;8.37;;;7.67;;
317;SDS011;146;53.448;10.228;2022-11-12T11:55:00;7.40;;;6.80;;
317;SDS011;146;53.448;10.228;2022-11-12T11:57:35;8.03;;;7.23;;
317;SDS011;146;53.448;10.228;2022-11-12T12:00:10;8.93;;;8.07;;
317;SDS011;146;53.448;10.228;2022-11-12T12:02:47;9.93;;;8.97;;
317;SDS011;146;53.448;10.228;2022-11-12T12:05:31;8.20;;;7.30;;
317;SDS011;146;53.448;10.228;2022-11-12T12:08:05;8.27;;;7.57;;
317;SDS011;146;53.448;10.228;2022-11-12T12:10:38;9.40;;;8.50;;
317;SDS011;146;53.448;10.228;2022-11-12T12:13:17;9.83;;;8.73;;
317;SDS011;146;53.448;10.228;2022-11-12T12:15:57;8.87;;;8.03;;
317;SDS011;146;53.448;10.228;2022-11-12T12:18:57;11.77;;;6.73;;
317;SDS011;146;53.448;10.228;2022-11-12T12:21:32;10.13;;;7.03;;
317;SDS011;146;53.448;10.228;2022-11-12T12:24:04;7.97;;;7.27;;
317;SDS011;146;53.448;10.228;2022-11-12T12:26:39;9.03;;;8.23;;
317;SDS011;146;53.448;10.228;2022-11-12T12:29:11;13.23;;;8.60;;
317;SDS011;146;53.448;10.228;2022-11-12T12:31:43;13.20;;;8.00;;
317;SDS011;146;53.448;10.228;2022-11-12T12:34:14;8.70;;;7.80;;
317;SDS011;146;53.448;10.228;2022-11-12T12:36:48;9.50;;;8.63;;
317;SDS011;146;53.448;10.228;2022-11-12T12:39:21;8.63;;;7.60;;
317;SDS011;146;53.448;10.228;2022-11-12T12:41:52;8.70;;;7.90;;
317;SDS011;146;53.448;10.228;2022-11-12T12:44:22;9.10;;;8.20;;
317;SDS011;146;53.448;10.228;2022-11-12T12:47:11;9.70;;;8.30;;
317;SDS011;146;53.448;10.228;2022-11-12T12:49:39;8.40;;;7.60;;
317;SDS011;146;53.448;10.228;2022-11-12T12:52:11;9.90;;;8.90;;
317;SDS011;146;53.448;10.228;2022-11-12T12:54:55;8.63;;;7.77;;
317;SDS011;146;53.448;10.228;2022-11-12T12:57:25;7.77;;;7.00;;
317;SDS011;146;53.448;10.228;2022-11-12T13:02:53;9.70;;;8.70;;
317;SDS011;146;53.448;10.228;2022-11-12T13:05:24;11.33;;;8.80;;
317;SDS011;146;53.448;10.228;2022-11-12T13:07:56;8.50;;;7.80;;
317;SDS011;146;53.448;10.228;2022-11-12T13:10:32;10.73;;;8.73;;
317;SDS011;146;53.448;10.228;2022-11-12T13:13:22;8.27;;;7.47;;
317;SDS011;146;53.448;10.228;2022-11-12T13:15:52;8.60;;;7.80;;
317;SDS011;146;53.448;10.228;2022-11-12T13:21:26;10.03;;;7.47;;
317;SDS011;146;53.448;10.228;2022-11-12T13:23:55;8.97;;;8.30;;
317;SDS011;146;53.448;10.228;2022-11-12T13:26:51;9.40;;;8.50;;
317;SDS011;146;53.448;10.228;2022-11-12T13:29:38;8.57;;;7.77;;
317;SDS011;146;53.448;10.228;2022-11-12T13:37:53;11.57;;;8.90;;
317;SDS011;146;53.448;10.228;2022-11-12T13:43:17;9.70;;;8.70;;
317;SDS011;146;53.448;10.228;2022-11-12T13:49:01;10.70;;;9.70;;
317;SDS011;146;53.448;10.228;2022-11-12T13:51:36;9.77;;;8.60;;
317;SDS011;146;53.448;10.228;2022-11-12T13:57:13;7.83;;;7.10;;
317;SDS011;146;53.448;10.228;2022-11-12T14:00:09;9.30;;;8.50;;
317;SDS011;146;53.448;10.228;2022-11-12T14:02:48;10.40;;;9.40;;
317;SDS011;146;53.448;10.228;2022-11-12T14:05:19;10.60;;;8.40;;
317;SDS011;146;53.448;10.228;2022-11-12T14:07:52;13.60;;;9.20;;
317;SDS011;146;53.448;10.228;2022-11-12T14:10:31;10.70;;;9.77;;
317;SDS011;146;53.448;10.228;2022-11-12T14:13:11;9.33;;;8.43;;
317;SDS011;146;53.448;10.228;2022-11-12T14:15:59;9.60;;;8.67;;
317;SDS011;146;53.448;10.228;2022-11-12T14:18:43;9.17;;;8.27;;
317;SDS011;146;53.448;10.228;2022-11-12T14:21:28;11.73;;;8.70;;
317;SDS011;146;53.448;10.228;2022-11-12T14:23:55;9.93;;;9.00;;
317;SDS011;146;53.448;10.228;2022-11-12T14:29:15;12.67;;;11.33;;
317;SDS011;146;53.448;10.228;2022-11-12T14:31:43;10.63;;;9.63;;
317;SDS011;146;53.448;10.228;2022-11-12T14:34:19;10.00;;;9.00;;
317;SDS011;146;53.448;10.228;2022-11-12T14:36:47;10.97;;;9.90;;
317;SDS011;146;53.448;10.228;2022-11-12T14:39:16;10.43;;;9.33;;
317;SDS011;146;53.448;10.228;2022-11-12T14:41:43;10.87;;;9.77;;
317;SDS011;146;53.448;10.228;2022-11-12T14:44:16;10.90;;;9.77;;
317;SDS011;146;53.448;10.228;2022-11-12T14:46:47;10.67;;;9.67;;
317;SDS011;146;53.448;10.228;2022-11-12T14:49:16;9.20;;;8.30;;
317;SDS011;146;53.448;10.228;2022-11-12T14:51:47;9.60;;;8.70;;
317;SDS011;146;53.448;10.228;2022-11-12T14:54:21;10.33;;;9.07;;
317;SDS011;146;53.448;10.228;2022-11-12T14:56:52;8.43;;;7.63;;
317;SDS011;146;53.448;10.228;2022-11-12T14:59:20;12.60;;;9.33;;
317;SDS011;146;53.448;10.228;2022-11-12T15:02:01;10.27;;;8.33;;
317;SDS011;146;53.448;10.228;2022-11-12T15:04:34;9.83;;;8.90;;
317;SDS011;146;53.448;10.228;2022-11-12T15:07:03;11.90;;;8.23;;
317;SDS011;146;53.448;10.228;2022-11-12T15:09:31;11.30;;;9.20;;
317;SDS011;146;53.448;10.228;2022-11-12T15:12:00;11.30;;;10.03;;
317;SDS011;146;53.448;10.228;2022-11-12T15:14:29;11.83;;;10.67;;
317;SDS011;146;53.448;10.228;2022-11-12T15:16:57;12.50;;;10.23;;
317;SDS011;146;53.448;10.228;2022-11-12T15:19:25;9.40;;;8.50;;
317;SDS011;146;53.448;10.228;2022-11-12T15:21:53;10.47;;;9.40;;
317;SDS011;146;53.448;10.228;2022-11-12T15:24:25;12.13;;;9.53;;
317;SDS011;146;53.448;10.228;2022-11-12T15:26:55;10.70;;;8.80;;
317;SDS011;146;53.448;10.228;2022-11-12T15:29:24;11.00;;;9.90;;
317;SDS011;146;53.448;10.228;2022-11-12T15:31:55;11.83;;;9.27;;
317;SDS011;146;53.448;10.228;2022-11-12T15:34:24;10.37;;;9.40;;
317;SDS011;146;53.448;10.228;2022-11-12T15:36:56;10.63;;;8.97;;
317;SDS011;146;53.448;10.228;2022-11-12T15:39:26;11.27;;;10.07;;
317;SDS011;146;53.448;10.228;2022-11-12T15:41:58;13.83;;;11.70;;
317;SDS011;146;53.448;10.228;2022-11-12T15:44:28;14.00;;;12.80;;
317;SDS011;146;53.448;10.228;2022-11-12T15:47:00;12.23;;;11.00;;
317;SDS011;146;53.448;10.228;2022-11-12T15:49:27;10.47;;;9.37;;
317;SDS011;146;53.448;10.228;2022-11-12T15:51:54;12.07;;;11.00;;
317;SDS011;146;53.448;10.228;2022-11-12T15:54:21;11.47;;;10.40;;
317;SDS011;146;53.448;10.228;2022-11-12T15:56:48;11.43;;;9.40;;
317;SDS011;146;53.448;10.228;2022-11-12T15:59:16;11.07;;;9.90;;
317;SDS011;146;53.448;10.228;2022-11-12T16:01:43;10.77;;;9.53;;
317;SDS011;146;53.448;10.228;2022-11-12T16:04:14;9.50;;;8.60;;
317;SDS011;146;53.448;10.228;2022-11-12T16:06:41;10.10;;;9.10;;
317;SDS011;146;53.448;10.228;2022-11-12T16:09:08;9.30;;;8.50;;
317;SDS011;146;53.448;10.228;2022-11-12T16:11:34;8.80;;;7.93;;
317;SDS011;146;53.448;10.228;2022-11-12T16:14:02;10.07;;;8.93;;
317;SDS011;146;53.448;10.228;2022-11-12T16:16:35;10.67;;;9.70;;
317;SDS011;146;53.448;10.228;2022-11-12T16:19:08;12.83;;;9.63;;